sensor_id;sensor_type;location;lat;lon;timestamp;noise_LAeq;noise_LA_min;noise_LA_max;noise_LA01;noise_LA95
61095;Laerm;20450;49.074;9.158;2023-03-14T00:00:18;44.79;39.70;58.23;;
61095;Laerm;20450;49.074;9.158;2023-03-14T00:02:45;46.34;39.81;61.38;;
61095;Laerm;20450;49.074;9.158;2023-03-14T00:05:12;43.97;40.33;55.99;;
61095;Laerm;20450;49.074;9.158;2023-03-14T00:07:39;43.38;40.53;54.30;;
61095;Laerm;20450;49.074;9.158;2023-03-14T00:10:12;45.72;39.81;60.30;;
61095;Laerm;20450;49.074;9.158;2023-03-14T00:12:40;43.72;41.06;57.39;;
61095;Laerm;20450;49.074;9.158;2023-03-14T00:15:09;43.12;39.70;53.72;;
61095;Laerm;20450;49.074;9.158;2023-03-14T00:17:37;43.43;39.70;52.51;;
61095;Laerm;20450;49.074;9.158;2023-03-14T00:20:06;43.12;39.92;49.73;;
61095;Laerm;20450;49.074;9.158;2023-03-14T00:22:35;43.05;40.33;46.48;;
61095;Laerm;20450;49.074;9.158;2023-03-14T00:25:03;42.97;40.13;48.92;;
61095;Laerm;20450;49.074;9.158;2023-03-14T00:27:32;42.98;40.62;47.08;;
61095;Laerm;20450;49.074;9.158;2023-03-14T00:30:01;43.01;40.13;51.50;;
61095;Laerm;20450;49.074;9.158;2023-03-14T00:32:28;43.03;39.34;47.10;;
61095;Laerm;20450;49.074;9.158;2023-03-14T00:34:55;43.09;38.81;54.34;;
61095;Laerm;20450;49.074;9.158;2023-03-14T00:37:22;43.06;40.03;50.66;;
61095;Laerm;20450;49.074;9.158;2023-03-14T00:39:51;43.75;39.58;57.64;;
61095;Laerm;20450;49.074;9.158;2023-03-14T00:42:21;43.30;38.67;55.48;;
61095;Laerm;20450;49.074;9.158;2023-03-14T00:44:49;43.44;39.70;52.01;;
61095;Laerm;20450;49.074;9.158;2023-03-14T00:47:16;43.06;40.03;52.79;;
61095;Laerm;20450;49.074;9.158;2023-03-14T00:49:43;42.90;40.13;45.04;;
61095;Laerm;20450;49.074;9.158;2023-03-14T00:52:11;43.04;40.13;49.62;;
61095;Laerm;20450;49.074;9.158;2023-03-14T00:54:38;42.83;40.08;45.66;;
61095;Laerm;20450;49.074;9.158;2023-03-14T00:57:05;42.89;39.46;51.44;;
61095;Laerm;20450;49.074;9.158;2023-03-14T00:59:32;43.74;39.70;57.62;;
61095;Laerm;20450;49.074;9.158;2023-03-14T01:02:00;43.55;38.95;58.05;;
61095;Laerm;20450;49.074;9.158;2023-03-14T01:04:27;43.43;39.70;54.61;;
61095;Laerm;20450;49.074;9.158;2023-03-14T01:06:55;43.96;39.46;58.28;;
61095;Laerm;20450;49.074;9.158;2023-03-14T01:09:22;43.42;40.03;57.09;;
61095;Laerm;20450;49.074;9.158;2023-03-14T01:11:49;43.06;39.68;52.72;;
61095;Laerm;20450;49.074;9.158;2023-03-14T01:14:16;42.93;39.58;50.30;;
61095;Laerm;20450;49.074;9.158;2023-03-14T01:16:43;43.22;39.46;57.57;;
61095;Laerm;20450;49.074;9.158;2023-03-14T01:19:11;43.56;40.13;54.81;;
61095;Laerm;20450;49.074;9.158;2023-03-14T01:21:38;43.43;39.81;60.33;;
61095;Laerm;20450;49.074;9.158;2023-03-14T01:24:06;43.35;39.78;54.29;;
61095;Laerm;20450;49.074;9.158;2023-03-14T01:26:35;42.82;40.62;49.91;;
61095;Laerm;20450;49.074;9.158;2023-03-14T01:29:04;45.55;39.08;59.44;;
61095;Laerm;20450;49.074;9.158;2023-03-14T01:31:33;44.29;39.78;58.11;;
61095;Laerm;20450;49.074;9.158;2023-03-14T01:34:01;43.88;38.37;56.85;;
61095;Laerm;20450;49.074;9.158;2023-03-14T01:36:30;46.04;39.46;60.91;;
61095;Laerm;20450;49.074;9.158;2023-03-14T01:39:00;44.36;39.70;62.84;;
61095;Laerm;20450;49.074;9.158;2023-03-14T01:41:27;42.80;39.46;46.18;;
61095;Laerm;20450;49.074;9.158;2023-03-14T01:43:56;43.37;39.46;55.55;;
61095;Laerm;20450;49.074;9.158;2023-03-14T01:46:33;42.99;39.46;52.88;;
61095;Laerm;20450;49.074;9.158;2023-03-14T01:49:27;43.40;40.03;56.08;;
61095;Laerm;20450;49.074;9.158;2023-03-14T01:52:09;42.93;39.58;52.96;;
61095;Laerm;20450;49.074;9.158;2023-03-14T01:54:41;42.82;40.03;44.69;;
61095;Laerm;20450;49.074;9.158;2023-03-14T01:57:15;42.89;40.23;46.84;;
61095;Laerm;20450;49.074;9.158;2023-03-14T01:59:50;42.90;40.23;47.72;;
61095;Laerm;20450;49.074;9.158;2023-03-14T02:02:19;42.81;40.33;46.62;;
61095;Laerm;20450;49.074;9.158;2023-03-14T02:04:48;42.78;39.92;47.00;;
61095;Laerm;20450;49.074;9.158;2023-03-14T02:07:23;42.85;40.80;45.30;;
61095;Laerm;20450;49.074;9.158;2023-03-14T02:10:12;43.34;40.03;56.78;;
61095;Laerm;20450;49.074;9.158;2023-03-14T02:12:39;43.05;40.62;51.60;;
61095;Laerm;20450;49.074;9.158;2023-03-14T02:15:29;42.95;40.80;45.51;;
61095;Laerm;20450;49.074;9.158;2023-03-14T02:18:02;42.94;40.62;44.69;;
61095;Laerm;20450;49.074;9.158;2023-03-14T02:20:54;43.07;40.89;45.51;;
61095;Laerm;20450;49.074;9.158;2023-03-14T02:23:36;43.55;41.06;52.44;;
61095;Laerm;20450;49.074;9.158;2023-03-14T02:26:12;43.45;41.46;47.86;;
61095;Laerm;20450;49.074;9.158;2023-03-14T02:28:44;43.72;41.22;46.71;;
61095;Laerm;20450;49.074;9.158;2023-03-14T02:31:11;43.32;41.06;49.84;;
61095;Laerm;20450;49.074;9.158;2023-03-14T02:33:38;43.27;41.19;49.85;;
61095;Laerm;20450;49.074;9.158;2023-03-14T02:36:10;43.53;40.43;51.07;;
61095;Laerm;20450;49.074;9.158;2023-03-14T02:38:47;43.60;41.30;45.54;;
61095;Laerm;20450;49.074;9.158;2023-03-14T02:41:19;44.12;40.80;55.74;;
61095;Laerm;20450;49.074;9.158;2023-03-14T02:43:57;43.96;41.89;52.58;;
61095;Laerm;20450;49.074;9.158;2023-03-14T02:46:24;44.34;41.53;53.45;;
61095;Laerm;20450;49.074;9.158;2023-03-14T02:48:55;44.20;41.82;53.20;;
61095;Laerm;20450;49.074;9.158;2023-03-14T02:51:25;44.84;41.96;58.84;;
61095;Laerm;20450;49.074;9.158;2023-03-14T02:53:53;44.48;41.96;52.70;;
61095;Laerm;20450;49.074;9.158;2023-03-14T02:56:21;44.43;41.82;57.74;;
61095;Laerm;20450;49.074;9.158;2023-03-14T02:58:49;43.98;41.30;49.96;;
61095;Laerm;20450;49.074;9.158;2023-03-14T03:01:27;44.34;41.61;59.32;;
61095;Laerm;20450;49.074;9.158;2023-03-14T03:03:54;43.96;41.38;51.00;;
61095;Laerm;20450;49.074;9.158;2023-03-14T03:06:21;44.12;41.61;50.60;;
61095;Laerm;20450;49.074;9.158;2023-03-14T03:08:48;43.95;41.96;47.48;;
61095;Laerm;20450;49.074;9.158;2023-03-14T03:11:16;44.07;41.22;53.40;;
61095;Laerm;20450;49.074;9.158;2023-03-14T03:13:43;43.77;42.16;45.14;;
61095;Laerm;20450;49.074;9.158;2023-03-14T03:16:11;44.14;41.75;48.80;;
61095;Laerm;20450;49.074;9.158;2023-03-14T03:18:40;43.86;42.03;45.51;;
61095;Laerm;20450;49.074;9.158;2023-03-14T03:21:07;43.78;41.14;45.91;;
61095;Laerm;20450;49.074;9.158;2023-03-14T03:23:34;43.88;41.22;51.93;;
61095;Laerm;20450;49.074;9.158;2023-03-14T03:26:01;43.70;41.22;48.91;;
61095;Laerm;20450;49.074;9.158;2023-03-14T03:28:28;44.03;42.03;46.78;;
61095;Laerm;20450;49.074;9.158;2023-03-14T03:30:56;44.11;41.94;46.27;;
61095;Laerm;20450;49.074;9.158;2023-03-14T03:33:24;44.15;40.98;49.59;;
61095;Laerm;20450;49.074;9.158;2023-03-14T03:35:52;44.07;41.68;46.45;;
61095;Laerm;20450;49.074;9.158;2023-03-14T03:38:26;44.14;41.26;51.63;;
61095;Laerm;20450;49.074;9.158;2023-03-14T03:40:55;44.05;42.09;48.34;;
61095;Laerm;20450;49.074;9.158;2023-03-14T03:43:24;44.17;42.59;45.66;;
61095;Laerm;20450;49.074;9.158;2023-03-14T03:45:51;44.13;42.09;45.83;;
61095;Laerm;20450;49.074;9.158;2023-03-14T03:48:20;44.13;42.41;46.97;;
61095;Laerm;20450;49.074;9.158;2023-03-14T03:50:47;43.97;41.68;46.07;;
61095;Laerm;20450;49.074;9.158;2023-03-14T03:53:21;43.96;42.03;46.38;;
61095;Laerm;20450;49.074;9.158;2023-03-14T03:56:00;43.94;41.06;48.70;;
61095;Laerm;20450;49.074;9.158;2023-03-14T03:58:27;44.14;42.71;45.86;;
61095;Laerm;20450;49.074;9.158;2023-03-14T04:00:55;44.17;42.65;46.33;;
61095;Laerm;20450;49.074;9.158;2023-03-14T04:03:23;44.21;42.71;45.57;;
61095;Laerm;20450;49.074;9.158;2023-03-14T04:06:04;44.21;42.71;46.05;;
61095;Laerm;20450;49.074;9.158;2023-03-14T04:08:43;44.33;42.22;45.89;;
61095;Laerm;20450;49.074;9.158;2023-03-14T04:11:32;44.24;42.41;45.91;;
61095;Laerm;20450;49.074;9.158;2023-03-14T04:14:11;44.29;41.96;45.83;;
61095;Laerm;20450;49.074;9.158;2023-03-14T04:16:38;44.27;42.93;45.78;;
61095;Laerm;20450;49.074;9.158;2023-03-14T04:19:10;44.21;42.71;45.72;;
61095;Laerm;20450;49.074;9.158;2023-03-14T04:21:37;44.27;42.76;45.75;;
61095;Laerm;20450;49.074;9.158;2023-03-14T04:24:06;44.15;42.47;45.42;;
61095;Laerm;20450;49.074;9.158;2023-03-14T04:26:36;44.27;42.53;46.05;;
61095;Laerm;20450;49.074;9.158;2023-03-14T04:29:03;44.17;42.65;45.60;;
61095;Laerm;20450;49.074;9.158;2023-03-14T04:31:30;44.25;42.41;47.59;;
61095;Laerm;20450;49.074;9.158;2023-03-14T04:33:57;44.17;42.47;45.60;;
61095;Laerm;20450;49.074;9.158;2023-03-14T04:36:32;44.40;42.41;47.04;;
61095;Laerm;20450;49.074;9.158;2023-03-14T04:39:03;44.50;42.98;46.15;;
61095;Laerm;20450;49.074;9.158;2023-03-14T04:41:32;44.37;42.82;46.25;;
61095;Laerm;20450;49.074;9.158;2023-03-14T04:43:59;44.35;42.53;46.18;;
61095;Laerm;20450;49.074;9.158;2023-03-14T04:46:27;44.30;41.46;46.15;;
61095;Laerm;20450;49.074;9.158;2023-03-14T04:48:54;44.44;42.47;47.54;;
61095;Laerm;20450;49.074;9.158;2023-03-14T04:51:21;44.43;42.93;46.05;;
61095;Laerm;20450;49.074;9.158;2023-03-14T04:53:48;44.46;42.09;46.35;;
61095;Laerm;20450;49.074;9.158;2023-03-14T04:56:15;44.55;42.71;46.48;;
61095;Laerm;20450;49.074;9.158;2023-03-14T04:58:44;44.52;42.03;46.80;;
61095;Laerm;20450;49.074;9.158;2023-03-14T05:01:14;45.14;42.88;53.83;;
61095;Laerm;20450;49.074;9.158;2023-03-14T05:03:51;45.51;42.71;54.50;;
61095;Laerm;20450;49.074;9.158;2023-03-14T05:06:27;45.43;42.71;54.94;;
61095;Laerm;20450;49.074;9.158;2023-03-14T05:09:10;44.68;42.93;50.76;;
61095;Laerm;20450;49.074;9.158;2023-03-14T05:12:09;44.75;42.64;50.78;;
61095;Laerm;20450;49.074;9.158;2023-03-14T05:14:54;44.83;43.04;50.98;;
61095;Laerm;20450;49.074;9.158;2023-03-14T05:17:47;44.72;43.04;47.51;;
61095;Laerm;20450;49.074;9.158;2023-03-14T05:20:40;44.87;41.82;47.12;;
61095;Laerm;20450;49.074;9.158;2023-03-14T05:23:45;44.82;42.41;51.01;;
61095;Laerm;20450;49.074;9.158;2023-03-14T05:26:35;44.87;41.30;53.20;;
61095;Laerm;20450;49.074;9.158;2023-03-14T05:29:30;44.91;42.35;52.68;;
61095;Laerm;20450;49.074;9.158;2023-03-14T05:32:27;45.08;42.82;46.89;;
61095;Laerm;20450;49.074;9.158;2023-03-14T05:35:09;44.95;41.06;47.90;;
61095;Laerm;20450;49.074;9.158;2023-03-14T05:37:52;45.12;43.34;57.95;;
61095;Laerm;20450;49.074;9.158;2023-03-14T05:40:21;45.14;41.30;54.87;;
61095;Laerm;20450;49.074;9.158;2023-03-14T05:43:01;44.82;42.41;60.61;;
61095;Laerm;20450;49.074;9.158;2023-03-14T05:45:47;44.84;42.98;48.85;;
61095;Laerm;20450;49.074;9.158;2023-03-14T05:48:48;44.90;42.93;51.81;;
61095;Laerm;20450;49.074;9.158;2023-03-14T05:51:34;44.89;42.76;48.08;;
61095;Laerm;20450;49.074;9.158;2023-03-14T05:54:33;44.89;42.09;50.92;;
61095;Laerm;20450;49.074;9.158;2023-03-14T05:57:12;44.97;42.65;54.63;;
61095;Laerm;20450;49.074;9.158;2023-03-14T05:59:59;45.00;42.65;53.05;;
61095;Laerm;20450;49.074;9.158;2023-03-14T06:02:38;44.89;42.41;50.29;;
61095;Laerm;20450;49.074;9.158;2023-03-14T06:05:17;44.85;42.47;49.47;;
61095;Laerm;20450;49.074;9.158;2023-03-14T06:07:44;45.02;42.59;52.17;;
61095;Laerm;20450;49.074;9.158;2023-03-14T06:10:11;45.10;41.96;51.59;;
61095;Laerm;20450;49.074;9.158;2023-03-14T06:12:38;44.76;42.35;52.00;;
61095;Laerm;20450;49.074;9.158;2023-03-14T06:15:07;44.95;42.22;49.57;;
61095;Laerm;20450;49.074;9.158;2023-03-14T06:17:34;44.97;43.04;56.10;;
61095;Laerm;20450;49.074;9.158;2023-03-14T06:20:07;44.86;43.09;47.93;;
61095;Laerm;20450;49.074;9.158;2023-03-14T06:22:36;44.79;43.19;49.64;;
61095;Laerm;20450;49.074;9.158;2023-03-14T06:25:04;44.92;42.93;46.82;;
61095;Laerm;20450;49.074;9.158;2023-03-14T06:27:32;44.94;43.44;47.78;;
61095;Laerm;20450;49.074;9.158;2023-03-14T06:29:59;44.92;43.09;47.67;;
61095;Laerm;20450;49.074;9.158;2023-03-14T06:32:26;44.90;43.14;46.93;;
61095;Laerm;20450;49.074;9.158;2023-03-14T06:34:57;45.00;42.71;47.28;;
61095;Laerm;20450;49.074;9.158;2023-03-14T06:37:24;45.18;43.19;56.65;;
61095;Laerm;20450;49.074;9.158;2023-03-14T06:39:53;45.07;42.98;52.06;;
61095;Laerm;20450;49.074;9.158;2023-03-14T06:42:42;45.37;43.39;59.60;;
61095;Laerm;20450;49.074;9.158;2023-03-14T06:45:10;45.33;43.49;51.53;;
61095;Laerm;20450;49.074;9.158;2023-03-14T06:47:37;45.32;43.49;48.03;;
61095;Laerm;20450;49.074;9.158;2023-03-14T06:50:36;45.17;43.14;50.53;;
61095;Laerm;20450;49.074;9.158;2023-03-14T06:53:09;45.33;43.09;49.81;;
61095;Laerm;20450;49.074;9.158;2023-03-14T06:55:44;45.46;43.24;52.31;;
61095;Laerm;20450;49.074;9.158;2023-03-14T06:58:21;45.25;43.09;48.66;;
61095;Laerm;20450;49.074;9.158;2023-03-14T07:00:51;45.18;42.76;52.47;;
61095;Laerm;20450;49.074;9.158;2023-03-14T07:03:24;45.10;43.14;49.56;;
61095;Laerm;20450;49.074;9.158;2023-03-14T07:05:53;45.10;43.04;52.30;;
61095;Laerm;20450;49.074;9.158;2023-03-14T07:08:21;44.91;42.82;48.46;;
61095;Laerm;20450;49.074;9.158;2023-03-14T07:10:56;45.23;42.65;53.29;;
61095;Laerm;20450;49.074;9.158;2023-03-14T07:13:24;45.19;42.76;50.77;;
61095;Laerm;20450;49.074;9.158;2023-03-14T07:15:59;45.77;42.59;63.50;;
61095;Laerm;20450;49.074;9.158;2023-03-14T07:18:26;44.74;42.16;47.83;;
61095;Laerm;20450;49.074;9.158;2023-03-14T07:20:55;46.72;42.82;60.15;;
61095;Laerm;20450;49.074;9.158;2023-03-14T07:23:24;46.04;43.19;55.66;;
61095;Laerm;20450;49.074;9.158;2023-03-14T07:25:54;44.89;41.82;49.30;;
61095;Laerm;20450;49.074;9.158;2023-03-14T07:28:24;45.07;42.41;51.50;;
61095;Laerm;20450;49.074;9.158;2023-03-14T07:30:58;45.13;42.53;57.48;;
61095;Laerm;20450;49.074;9.158;2023-03-14T07:33:30;45.01;42.22;51.10;;
61095;Laerm;20450;49.074;9.158;2023-03-14T07:35:57;45.80;42.98;58.28;;
61095;Laerm;20450;49.074;9.158;2023-03-14T07:38:27;45.07;42.35;52.61;;
61095;Laerm;20450;49.074;9.158;2023-03-14T07:41:14;45.21;42.82;53.50;;
61095;Laerm;20450;49.074;9.158;2023-03-14T07:43:53;45.07;43.29;51.69;;
61095;Laerm;20450;49.074;9.158;2023-03-14T07:46:21;45.46;43.09;56.97;;
61095;Laerm;20450;49.074;9.158;2023-03-14T07:48:48;46.05;43.58;56.53;;
61095;Laerm;20450;49.074;9.158;2023-03-14T07:51:15;45.54;43.39;51.54;;
61095;Laerm;20450;49.074;9.158;2023-03-14T07:53:42;45.55;43.68;48.67;;
61095;Laerm;20450;49.074;9.158;2023-03-14T07:56:09;45.48;42.22;52.97;;
61095;Laerm;20450;49.074;9.158;2023-03-14T07:58:37;44.95;43.34;49.12;;
61095;Laerm;20450;49.074;9.158;2023-03-14T08:01:05;45.10;43.39;48.83;;
61095;Laerm;20450;49.074;9.158;2023-03-14T08:03:33;44.86;41.96;49.35;;
61095;Laerm;20450;49.074;9.158;2023-03-14T08:06:03;45.42;43.04;55.44;;
61095;Laerm;20450;49.074;9.158;2023-03-14T08:08:30;45.30;43.24;54.36;;
61095;Laerm;20450;49.074;9.158;2023-03-14T08:11:03;45.80;43.09;52.64;;
61095;Laerm;20450;49.074;9.158;2023-03-14T08:13:31;45.51;43.29;52.31;;
61095;Laerm;20450;49.074;9.158;2023-03-14T08:16:01;45.60;43.68;50.27;;
61095;Laerm;20450;49.074;9.158;2023-03-14T08:18:28;45.70;43.58;50.78;;
61095;Laerm;20450;49.074;9.158;2023-03-14T08:20:55;45.52;43.44;52.54;;
61095;Laerm;20450;49.074;9.158;2023-03-14T08:23:21;45.45;43.04;55.99;;
61095;Laerm;20450;49.074;9.158;2023-03-14T08:25:49;45.52;43.14;56.94;;
61095;Laerm;20450;49.074;9.158;2023-03-14T08:28:17;45.25;42.71;50.40;;
61095;Laerm;20450;49.074;9.158;2023-03-14T08:30:45;44.82;42.82;53.82;;
61095;Laerm;20450;49.074;9.158;2023-03-14T08:33:15;44.89;42.64;55.01;;
61095;Laerm;20450;49.074;9.158;2023-03-14T08:35:42;45.18;43.14;52.85;;
61095;Laerm;20450;49.074;9.158;2023-03-14T08:38:08;45.01;43.19;48.57;;
61095;Laerm;20450;49.074;9.158;2023-03-14T08:40:36;45.07;42.35;58.31;;
61095;Laerm;20450;49.074;9.158;2023-03-14T08:43:03;46.62;42.09;63.06;;
61095;Laerm;20450;49.074;9.158;2023-03-14T08:45:30;49.05;42.03;73.04;;
61095;Laerm;20450;49.074;9.158;2023-03-14T08:47:57;54.14;41.96;75.81;;
61095;Laerm;20450;49.074;9.158;2023-03-14T08:50:26;44.71;41.89;67.12;;
61095;Laerm;20450;49.074;9.158;2023-03-14T08:52:53;44.22;40.43;57.06;;
61095;Laerm;20450;49.074;9.158;2023-03-14T08:55:20;45.11;42.35;57.49;;
61095;Laerm;20450;49.074;9.158;2023-03-14T08:57:47;45.91;42.41;61.31;;
61095;Laerm;20450;49.074;9.158;2023-03-14T09:00:16;44.54;41.82;51.28;;
61095;Laerm;20450;49.074;9.158;2023-03-14T09:02:43;44.92;40.89;56.57;;
61095;Laerm;20450;49.074;9.158;2023-03-14T09:05:11;44.64;42.41;53.37;;
61095;Laerm;20450;49.074;9.158;2023-03-14T09:07:40;44.46;41.68;50.19;;
61095;Laerm;20450;49.074;9.158;2023-03-14T09:10:09;44.17;41.61;52.56;;
61095;Laerm;20450;49.074;9.158;2023-03-14T09:12:36;44.21;41.61;50.31;;
61095;Laerm;20450;49.074;9.158;2023-03-14T09:15:09;44.23;42.22;51.13;;
61095;Laerm;20450;49.074;9.158;2023-03-14T09:17:36;44.44;42.53;51.64;;
61095;Laerm;20450;49.074;9.158;2023-03-14T09:20:04;44.55;41.88;51.94;;
61095;Laerm;20450;49.074;9.158;2023-03-14T09:22:31;44.28;41.46;57.86;;
61095;Laerm;20450;49.074;9.158;2023-03-14T09:24:59;44.37;41.96;48.67;;
61095;Laerm;20450;49.074;9.158;2023-03-14T09:27:26;44.53;42.35;50.34;;
61095;Laerm;20450;49.074;9.158;2023-03-14T09:29:53;44.51;42.65;47.18;;
61095;Laerm;20450;49.074;9.158;2023-03-14T09:32:20;44.39;42.71;46.50;;
61095;Laerm;20450;49.074;9.158;2023-03-14T09:35:17;44.66;42.65;55.14;;
61095;Laerm;20450;49.074;9.158;2023-03-14T09:37:44;45.22;42.47;58.70;;
61095;Laerm;20450;49.074;9.158;2023-03-14T09:40:16;45.53;42.22;61.38;;
61095;Laerm;20450;49.074;9.158;2023-03-14T09:42:44;45.28;41.96;59.02;;
61095;Laerm;20450;49.074;9.158;2023-03-14T09:45:25;44.68;42.41;49.57;;
61095;Laerm;20450;49.074;9.158;2023-03-14T09:47:58;44.71;41.38;49.41;;
61095;Laerm;20450;49.074;9.158;2023-03-14T09:50:35;45.13;42.41;56.26;;
61095;Laerm;20450;49.074;9.158;2023-03-14T09:53:11;45.21;42.82;55.16;;
61095;Laerm;20450;49.074;9.158;2023-03-14T09:55:42;47.45;41.53;66.73;;
61095;Laerm;20450;49.074;9.158;2023-03-14T09:58:15;46.34;40.89;62.58;;
61095;Laerm;20450;49.074;9.158;2023-03-14T10:00:43;44.70;42.47;54.23;;
61095;Laerm;20450;49.074;9.158;2023-03-14T10:03:24;46.01;43.29;53.40;;
61095;Laerm;20450;49.074;9.158;2023-03-14T10:05:53;45.27;42.22;56.66;;
61095;Laerm;20450;49.074;9.158;2023-03-14T10:08:21;46.98;42.82;58.57;;
61095;Laerm;20450;49.074;9.158;2023-03-14T10:10:50;45.71;43.04;58.36;;
61095;Laerm;20450;49.074;9.158;2023-03-14T10:13:20;45.30;43.24;53.24;;
61095;Laerm;20450;49.074;9.158;2023-03-14T10:15:52;45.23;42.76;49.92;;
61095;Laerm;20450;49.074;9.158;2023-03-14T10:18:19;45.30;43.34;52.91;;
61095;Laerm;20450;49.074;9.158;2023-03-14T10:20:48;45.27;43.09;52.55;;
61095;Laerm;20450;49.074;9.158;2023-03-14T10:23:26;46.10;41.61;62.49;;
61095;Laerm;20450;49.074;9.158;2023-03-14T10:26:06;45.04;43.04;58.31;;
61095;Laerm;20450;49.074;9.158;2023-03-14T10:28:40;44.90;42.29;55.99;;
61095;Laerm;20450;49.074;9.158;2023-03-14T10:31:09;44.97;41.82;56.59;;
61095;Laerm;20450;49.074;9.158;2023-03-14T10:33:37;44.65;42.53;52.48;;
61095;Laerm;20450;49.074;9.158;2023-03-14T10:36:18;44.48;42.41;49.38;;
61095;Laerm;20450;49.074;9.158;2023-03-14T10:38:47;45.73;42.03;62.01;;
61095;Laerm;20450;49.074;9.158;2023-03-14T10:41:20;44.89;41.61;52.64;;
61095;Laerm;20450;49.074;9.158;2023-03-14T10:43:54;44.70;42.53;52.22;;
61095;Laerm;20450;49.074;9.158;2023-03-14T10:46:24;44.63;42.65;48.34;;
61095;Laerm;20450;49.074;9.158;2023-03-14T10:49:27;44.81;42.71;55.86;;
61095;Laerm;20450;49.074;9.158;2023-03-14T10:51:54;44.77;42.65;54.87;;
61095;Laerm;20450;49.074;9.158;2023-03-14T10:54:23;44.56;42.71;51.34;;
61095;Laerm;20450;49.074;9.158;2023-03-14T10:57:00;44.92;42.88;49.58;;
61095;Laerm;20450;49.074;9.158;2023-03-14T10:59:35;45.07;42.82;51.18;;
61095;Laerm;20450;49.074;9.158;2023-03-14T11:02:28;47.23;41.30;68.25;;
61095;Laerm;20450;49.074;9.158;2023-03-14T11:05:11;45.86;41.46;62.86;;
61095;Laerm;20450;49.074;9.158;2023-03-14T11:07:42;44.22;41.30;48.96;;
61095;Laerm;20450;49.074;9.158;2023-03-14T11:10:19;44.41;42.41;51.09;;
61095;Laerm;20450;49.074;9.158;2023-03-14T11:13:12;46.20;40.98;59.88;;
61095;Laerm;20450;49.074;9.158;2023-03-14T11:15:53;44.71;42.47;51.75;;
61095;Laerm;20450;49.074;9.158;2023-03-14T11:18:58;46.29;41.68;64.25;;
61095;Laerm;20450;49.074;9.158;2023-03-14T11:21:32;45.04;42.88;50.84;;
61095;Laerm;20450;49.074;9.158;2023-03-14T11:27:17;44.75;42.41;51.46;;
61095;Laerm;20450;49.074;9.158;2023-03-14T11:29:55;44.75;41.14;52.72;;
61095;Laerm;20450;49.074;9.158;2023-03-14T11:32:38;44.34;41.94;51.95;;
61095;Laerm;20450;49.074;9.158;2023-03-14T11:35:20;45.08;41.53;55.61;;
61095;Laerm;20450;49.074;9.158;2023-03-14T11:37:59;44.52;42.47;47.06;;
61095;Laerm;20450;49.074;9.158;2023-03-14T11:40:33;45.58;41.38;65.72;;
61095;Laerm;20450;49.074;9.158;2023-03-14T11:43:11;44.55;41.68;51.75;;
61095;Laerm;20450;49.074;9.158;2023-03-14T11:45:43;44.41;41.75;50.35;;
61095;Laerm;20450;49.074;9.158;2023-03-14T11:48:31;44.47;42.16;50.08;;
61095;Laerm;20450;49.074;9.158;2023-03-14T11:51:12;44.31;42.03;50.00;;
61095;Laerm;20450;49.074;9.158;2023-03-14T11:54:12;44.28;41.14;57.98;;
61095;Laerm;20450;49.074;9.158;2023-03-14T11:56:51;44.41;42.22;54.68;;
61095;Laerm;20450;49.074;9.158;2023-03-14T11:59:38;45.53;40.03;66.24;;
61095;Laerm;20450;49.074;9.158;2023-03-14T12:02:22;43.93;41.06;52.08;;
61095;Laerm;20450;49.074;9.158;2023-03-14T12:05:21;43.86;40.80;52.41;;
61095;Laerm;20450;49.074;9.158;2023-03-14T12:08:29;44.17;40.98;54.63;;
61095;Laerm;20450;49.074;9.158;2023-03-14T12:11:10;43.96;42.03;50.29;;
61095;Laerm;20450;49.074;9.158;2023-03-14T12:13:40;44.04;41.06;58.39;;
61095;Laerm;20450;49.074;9.158;2023-03-14T12:16:33;44.19;41.53;57.58;;
61095;Laerm;20450;49.074;9.158;2023-03-14T12:19:32;44.14;41.38;46.97;;
61095;Laerm;20450;49.074;9.158;2023-03-14T12:22:24;44.30;42.29;49.69;;
61095;Laerm;20450;49.074;9.158;2023-03-14T12:25:00;44.26;41.61;51.93;;
61095;Laerm;20450;49.074;9.158;2023-03-14T12:28:03;44.23;40.71;59.05;;
61095;Laerm;20450;49.074;9.158;2023-03-14T12:30:33;43.57;40.98;52.26;;
61095;Laerm;20450;49.074;9.158;2023-03-14T12:33:29;45.19;41.14;68.05;;
61095;Laerm;20450;49.074;9.158;2023-03-14T12:36:30;43.80;41.06;59.67;;
61095;Laerm;20450;49.074;9.158;2023-03-14T12:39:21;53.10;40.43;78.01;;
61095;Laerm;20450;49.074;9.158;2023-03-14T12:41:53;43.41;40.13;54.79;;
61095;Laerm;20450;49.074;9.158;2023-03-14T12:44:46;43.59;40.36;60.60;;
61095;Laerm;20450;49.074;9.158;2023-03-14T12:47:47;43.31;40.33;53.05;;
61095;Laerm;20450;49.074;9.158;2023-03-14T12:50:25;43.95;41.14;63.05;;
61095;Laerm;20450;49.074;9.158;2023-03-14T12:56:27;43.78;40.80;60.67;;
61095;Laerm;20450;49.074;9.158;2023-03-14T12:59:27;44.23;40.43;62.65;;
61095;Laerm;20450;49.074;9.158;2023-03-14T13:02:00;44.92;40.80;66.81;;
61095;Laerm;20450;49.074;9.158;2023-03-14T13:04:33;43.50;40.13;53.28;;
61095;Laerm;20450;49.074;9.158;2023-03-14T13:07:12;43.46;40.33;46.73;;
61095;Laerm;20450;49.074;9.158;2023-03-14T13:10:03;44.66;40.80;65.75;;
61095;Laerm;20450;49.074;9.158;2023-03-14T13:12:47;43.44;40.89;59.34;;
61095;Laerm;20450;49.074;9.158;2023-03-14T13:15:21;43.56;40.33;56.86;;
61095;Laerm;20450;49.074;9.158;2023-03-14T13:17:51;43.43;39.81;58.18;;
61095;Laerm;20450;49.074;9.158;2023-03-14T13:20:29;43.51;41.22;49.92;;
61095;Laerm;20450;49.074;9.158;2023-03-14T13:22:57;43.63;40.62;50.49;;
61095;Laerm;20450;49.074;9.158;2023-03-14T13:25:31;43.42;40.53;58.80;;
61095;Laerm;20450;49.074;9.158;2023-03-14T13:28:00;43.68;41.06;53.95;;
61095;Laerm;20450;49.074;9.158;2023-03-14T13:30:35;43.66;41.22;46.97;;
61095;Laerm;20450;49.074;9.158;2023-03-14T13:33:04;43.67;41.53;49.73;;
61095;Laerm;20450;49.074;9.158;2023-03-14T13:35:41;43.53;41.14;53.15;;
61095;Laerm;20450;49.074;9.158;2023-03-14T13:38:17;43.17;40.98;51.55;;
61095;Laerm;20450;49.074;9.158;2023-03-14T13:40:47;43.84;41.38;55.76;;
61095;Laerm;20450;49.074;9.158;2023-03-14T13:43:20;44.30;41.22;64.26;;
61095;Laerm;20450;49.074;9.158;2023-03-14T13:45:54;44.03;41.53;50.33;;
61095;Laerm;20450;49.074;9.158;2023-03-14T13:48:27;44.03;41.61;55.96;;
61095;Laerm;20450;49.074;9.158;2023-03-14T13:50:59;43.97;41.75;58.80;;
61095;Laerm;20450;49.074;9.158;2023-03-14T13:53:27;44.76;42.22;60.46;;
61095;Laerm;20450;49.074;9.158;2023-03-14T13:55:56;44.64;41.30;61.14;;
61095;Laerm;20450;49.074;9.158;2023-03-14T13:58:27;44.42;41.30;53.74;;
61095;Laerm;20450;49.074;9.158;2023-03-14T14:01:00;45.03;41.89;63.16;;
61095;Laerm;20450;49.074;9.158;2023-03-14T14:03:31;44.46;41.89;57.36;;
61095;Laerm;20450;49.074;9.158;2023-03-14T14:06:00;44.80;41.14;62.21;;
61095;Laerm;20450;49.074;9.158;2023-03-14T14:08:27;44.23;41.06;54.15;;
61095;Laerm;20450;49.074;9.158;2023-03-14T14:11:00;44.28;41.96;57.99;;
61095;Laerm;20450;49.074;9.158;2023-03-14T14:13:33;44.22;41.22;57.11;;
61095;Laerm;20450;49.074;9.158;2023-03-14T14:16:02;44.36;41.75;53.43;;
61095;Laerm;20450;49.074;9.158;2023-03-14T14:18:32;44.16;41.75;52.81;;
61095;Laerm;20450;49.074;9.158;2023-03-14T14:21:03;53.06;40.80;80.26;;
61095;Laerm;20450;49.074;9.158;2023-03-14T14:23:30;45.42;42.16;63.15;;
61095;Laerm;20450;49.074;9.158;2023-03-14T14:25:59;45.67;42.09;62.46;;